Dahlonega, Iowa
Current Conditions -  °F | °C
As of 5:53 AM on Saturday 20 Dec 2014 (Local Time) from KOTM Reporting Station
Haze Haze  
Wind Chill: 24°   Ceiling: 400
Heat Index: 31°   Visibility: 3mi
Dew Point: 29°   Wind: 7mph
Humidity: 92%   Direction: 160°SSE
Pressure: 30.19"   Gusts: NA
Location:  41.0803°N, 92.3054°W
Report Text: KOTM 201153Z AUTO 16006KT 3SM BR OVC004 M01/M02 A3019 RMK AO2 SLP232 I6000 T10061017 11006 21011 56005
Loading
Personal Weather Stations






























Interactive Weather Map New forecast layout! Learn more

10-Day Weather Forecast

Advertisements
Track Severe Weather on mobile